Adams, Oregon
Current Conditions -  °F | °C
As of 5:53 PM on Monday 20 Oct 2014 (Local Time) from KPDT Reporting Station
Overcast Overcast  
Wind Chill: 58°   Ceiling: 5000
Heat Index: 58°   Visibility: 10mi
Dew Point: 44°   Wind: 28mph
Humidity: 60%   Direction: 280°W
Pressure: 29.82"   Gusts: 35mph
Location:  45.77°N, 118.56°W
Report Text: KPDT 210053Z 28024G30KT 10SM OVC050 14/07 A2982 RMK AO2 PK WND 28030/0052 SLP092 T01440067
Loading
Personal Weather Stations






























Interactive Weather Map New forecast layout! Learn more

10-Day Weather Forecast

Advertisements
Track Severe Weather on mobile